Terminal Aerodrome Forecast
Issued by NWS Kansas City/Pleasant Hill, MO

Home | Current Version | Previous Version | Text Only | Print | Product List | Glossary On
Versions: 1 2 3 4 5 6 7 8 9 10 11 12 13 14 15 16 17 18
084
FTUS43 KEAX 281722
TAFMCI
TAF
KMCI 281722Z 2818/2918 VRB05KT P6SM OVC012
      TEMPO 2818/2819 BKN009
     FM282100 03008KT P6SM BKN020
     FM290100 04010KT P6SM BKN012
     FM291100 05014KT 5SM -RA OVC008=

USA.gov is the U.S. government's official web portal to all federal, state and local government web resources and services.